Accueil
METAR-TAF:

METAR-TAF

Aéroports :

Aéroport Otto-Lilienthal de Berlin-Tegel

Berlin, Allemagne

latitude: 52-34N, longitude: 013-19E, altitude: 37 m

Observation

Le bulletin a été fait il y a 25 minutes, à 15:50 UTC
Vent 7 kt de sud
Température -2°C
Humidité 80%
Pression 1020 hPa
Visibilité 10 km ou plus
pas de nuages en-dessous de 1500 mètres et pas de cumulonimbus.

METAR: EDDT 211550Z 19007KT CAVOK M02/M05 Q1020 NOSIG

Heure: 17:15 (16:15 UTC)

Prévision

Le bulletin a été fait il y a 5 heures et 15 minutes, à 11:00 UTC
Prévision valable du 21 à 12 UTC au 22 à 12 UTC
Vent 5 kt de sud/sud-ouest
Visibilité: 7000 m
Nuages fragmentés à une hauteur de 800 ft
Evoluant progressivement
du 21 à 12 UTC au 21 à 15 UTC
Nuages épars à une hauteur de 1000 ft
Temporairement
du 21 à 15 UTC au 21 à 17 UTC
Visibilité: 2500 m
brume

TAF: EDDT 211100Z 2112/2212 20005KT 7000 BKN008 BECMG 2112/2115 SCT010 TEMPO 2115/2117 2500 BR

Observations et prévisions météorologiques de plus de 4000 aéroports (messages METAR et TAF).

Les stations disponibles sont représentées par des disques jaunes et rouges sur la carte.

Passer la souris dessus pour voir le nom de la station.

Cliquer dessus pour voir les observations et prévisions météorologiques.

Pour changer de carte: cliquez sur les boutons verts avec une croix noire pour zoomer, sur le bouton vert avec un tiret pour effectuer un zoom arrière, ou sur les flèches vertes pour les cartes adjacentes.


METAR-TAF: